sensor_id;sensor_type;location;lat;lon;timestamp;pressure;altitude;pressure_sealevel;temperature;humidity
50226;BME280;36113;50.742;6.432;2023-02-01T00:00:28;146060.44;;;4.32;100.00
50226;BME280;36113;50.742;6.432;2023-02-01T00:02:54;146028.03;;;4.19;100.00
50226;BME280;36113;50.742;6.432;2023-02-01T00:05:19;146031.75;;;4.20;100.00
50226;BME280;36113;50.742;6.432;2023-02-01T00:07:47;146052.94;;;4.29;100.00
50226;BME280;36113;50.742;6.432;2023-02-01T00:10:13;146055.47;;;4.30;100.00
50226;BME280;36113;50.742;6.432;2023-02-01T00:12:38;146052.94;;;4.29;100.00
50226;BME280;36113;50.742;6.432;2023-02-01T00:15:03;146064.19;;;4.34;100.00
50226;BME280;36113;50.742;6.432;2023-02-01T00:17:29;146036.75;;;4.22;100.00
50226;BME280;36113;50.742;6.432;2023-02-01T00:19:54;146033.00;;;4.21;100.00
50226;BME280;36113;50.742;6.432;2023-02-01T00:22:19;146006.84;;;4.10;100.00
50226;BME280;36113;50.742;6.432;2023-02-01T00:24:45;146043.00;;;4.25;100.00
50226;BME280;36113;50.742;6.432;2023-02-01T00:27:10;146037.97;;;4.23;100.00
50226;BME280;36113;50.742;6.432;2023-02-01T00:29:35;146040.47;;;4.24;100.00
50226;BME280;36113;50.742;6.432;2023-02-01T00:32:01;146055.47;;;4.30;100.00
50226;BME280;36113;50.742;6.432;2023-02-01T00:34:26;146056.69;;;4.30;100.00
50226;BME280;36113;50.742;6.432;2023-02-01T00:36:51;146062.91;;;4.33;100.00
50226;BME280;36113;50.742;6.432;2023-02-01T00:39:17;146069.16;;;4.36;100.00
50226;BME280;36113;50.742;6.432;2023-02-01T00:41:43;146062.91;;;4.33;100.00
50226;BME280;36113;50.742;6.432;2023-02-01T00:44:08;146051.72;;;4.28;100.00
50226;BME280;36113;50.742;6.432;2023-02-01T00:46:33;146054.19;;;4.29;100.00
50226;BME280;36113;50.742;6.432;2023-02-01T00:48:59;146015.56;;;4.13;100.00
50226;BME280;36113;50.742;6.432;2023-02-01T00:51:27;146055.47;;;4.30;100.00
50226;BME280;36113;50.742;6.432;2023-02-01T00:53:53;146066.66;;;4.35;100.00
50226;BME280;36113;50.742;6.432;2023-02-01T00:56:19;146050.44;;;4.28;100.00
50226;BME280;36113;50.742;6.432;2023-02-01T00:58:44;146072.91;;;4.37;100.00
50226;BME280;36113;50.742;6.432;2023-02-01T01:01:21;146067.94;;;4.35;100.00
50226;BME280;36113;50.742;6.432;2023-02-01T01:03:50;146079.13;;;4.40;100.00
50226;BME280;36113;50.742;6.432;2023-02-01T01:06:18;146071.66;;;4.37;100.00
50226;BME280;36113;50.742;6.432;2023-02-01T01:08:44;146071.66;;;4.37;100.00
50226;BME280;36113;50.742;6.432;2023-02-01T01:11:18;146065.41;;;4.34;100.00
50226;BME280;36113;50.742;6.432;2023-02-01T01:13:47;146060.44;;;4.32;100.00
50226;BME280;36113;50.742;6.432;2023-02-01T01:16:12;146015.56;;;4.13;100.00
50226;BME280;36113;50.742;6.432;2023-02-01T01:18:38;146051.72;;;4.28;100.00
50226;BME280;36113;50.742;6.432;2023-02-01T01:21:05;146050.44;;;4.28;100.00
50226;BME280;36113;50.742;6.432;2023-02-01T01:23:30;146046.75;;;4.26;100.00
50226;BME280;36113;50.742;6.432;2023-02-01T01:25:56;146040.47;;;4.24;100.00
50226;BME280;36113;50.742;6.432;2023-02-01T01:28:21;146044.22;;;4.25;100.00
50226;BME280;36113;50.742;6.432;2023-02-01T01:30:47;146051.72;;;4.28;100.00
50226;BME280;36113;50.742;6.432;2023-02-01T01:33:12;146052.94;;;4.29;100.00
50226;BME280;36113;50.742;6.432;2023-02-01T01:35:38;146047.97;;;4.27;100.00
50226;BME280;36113;50.742;6.432;2023-02-01T01:38:03;146051.72;;;4.28;100.00
50226;BME280;36113;50.742;6.432;2023-02-01T01:40:30;146050.44;;;4.28;100.00
50226;BME280;36113;50.742;6.432;2023-02-01T01:42:56;146064.19;;;4.34;100.00
50226;BME280;36113;50.742;6.432;2023-02-01T01:45:31;146060.44;;;4.32;100.00
50226;BME280;36113;50.742;6.432;2023-02-01T01:48:05;146069.16;;;4.36;100.00
50226;BME280;36113;50.742;6.432;2023-02-01T01:50:37;146071.66;;;4.37;100.00
50226;BME280;36113;50.742;6.432;2023-02-01T01:53:05;146065.41;;;4.34;100.00
50226;BME280;36113;50.742;6.432;2023-02-01T01:55:37;146069.16;;;4.36;100.00
50226;BME280;36113;50.742;6.432;2023-02-01T01:58:11;146056.69;;;4.30;100.00
50226;BME280;36113;50.742;6.432;2023-02-01T02:00:40;146064.19;;;4.34;100.00
50226;BME280;36113;50.742;6.432;2023-02-01T02:03:11;146067.94;;;4.35;100.00
50226;BME280;36113;50.742;6.432;2023-02-01T02:05:39;146041.72;;;4.24;100.00
50226;BME280;36113;50.742;6.432;2023-02-01T02:08:05;146044.22;;;4.25;100.00
50226;BME280;36113;50.742;6.432;2023-02-01T02:10:30;146080.41;;;4.40;100.00
50226;BME280;36113;50.742;6.432;2023-02-01T02:13:16;146075.38;;;4.38;100.00
50226;BME280;36113;50.742;6.432;2023-02-01T02:15:48;146085.38;;;4.42;100.00
50226;BME280;36113;50.742;6.432;2023-02-01T02:18:30;146092.88;;;4.45;100.00
50226;BME280;36113;50.742;6.432;2023-02-01T02:21:12;146090.34;;;4.44;100.00
50226;BME280;36113;50.742;6.432;2023-02-01T02:24:03;146060.44;;;4.32;100.00
50226;BME280;36113;50.742;6.432;2023-02-01T02:26:45;146037.97;;;4.23;100.00
50226;BME280;36113;50.742;6.432;2023-02-01T02:29:36;146051.72;;;4.28;100.00
50226;BME280;36113;50.742;6.432;2023-02-01T02:35:19;146059.22;;;4.31;100.00
50226;BME280;36113;50.742;6.432;2023-02-01T02:37:56;146069.16;;;4.36;100.00
50226;BME280;36113;50.742;6.432;2023-02-01T02:46:08;146050.44;;;4.28;100.00
50226;BME280;36113;50.742;6.432;2023-02-01T02:49:19;146062.91;;;4.33;100.00
50226;BME280;36113;50.742;6.432;2023-02-01T02:52:00;146028.03;;;4.19;100.00
50226;BME280;36113;50.742;6.432;2023-02-01T02:54:47;146062.91;;;4.33;100.00
50226;BME280;36113;50.742;6.432;2023-02-01T02:57:24;146021.81;;;4.16;100.00
50226;BME280;36113;50.742;6.432;2023-02-01T03:00:16;145993.13;;;4.04;100.00
50226;BME280;36113;50.742;6.432;2023-02-01T03:03:01;146057.94;;;4.31;100.00
50226;BME280;36113;50.742;6.432;2023-02-01T03:05:47;146066.66;;;4.35;100.00
50226;BME280;36113;50.742;6.432;2023-02-01T03:08:25;146075.38;;;4.38;100.00
50226;BME280;36113;50.742;6.432;2023-02-01T03:11:01;146069.16;;;4.36;100.00
50226;BME280;36113;50.742;6.432;2023-02-01T03:13:45;146071.66;;;4.37;100.00
50226;BME280;36113;50.742;6.432;2023-02-01T03:16:21;146075.38;;;4.38;100.00
50226;BME280;36113;50.742;6.432;2023-02-01T03:18:55;146060.44;;;4.32;100.00
50226;BME280;36113;50.742;6.432;2023-02-01T03:21:26;146067.94;;;4.35;100.00
50226;BME280;36113;50.742;6.432;2023-02-01T03:24:01;146075.38;;;4.38;100.00
50226;BME280;36113;50.742;6.432;2023-02-01T03:26:29;146079.13;;;4.40;100.00
50226;BME280;36113;50.742;6.432;2023-02-01T03:28:59;146050.44;;;4.28;100.00
50226;BME280;36113;50.742;6.432;2023-02-01T03:31:27;146070.41;;;4.36;100.00
50226;BME280;36113;50.742;6.432;2023-02-01T03:33:53;146074.13;;;4.38;100.00
50226;BME280;36113;50.742;6.432;2023-02-01T03:36:48;146087.84;;;4.43;100.00
50226;BME280;36113;50.742;6.432;2023-02-01T03:39:19;146041.72;;;4.24;100.00
50226;BME280;36113;50.742;6.432;2023-02-01T03:41:57;146071.66;;;4.37;100.00
50226;BME280;36113;50.742;6.432;2023-02-01T03:44:31;146070.41;;;4.36;100.00
50226;BME280;36113;50.742;6.432;2023-02-01T03:47:19;146057.94;;;4.31;100.00
50226;BME280;36113;50.742;6.432;2023-02-01T03:49:52;146055.47;;;4.30;100.00
50226;BME280;36113;50.742;6.432;2023-02-01T03:52:28;146060.44;;;4.32;100.00
50226;BME280;36113;50.742;6.432;2023-02-01T03:54:56;146050.44;;;4.28;100.00
50226;BME280;36113;50.742;6.432;2023-02-01T03:57:26;146045.47;;;4.26;100.00
50226;BME280;36113;50.742;6.432;2023-02-01T04:00:06;145996.88;;;4.06;100.00
50226;BME280;36113;50.742;6.432;2023-02-01T04:02:33;146016.78;;;4.14;100.00
50226;BME280;36113;50.742;6.432;2023-02-01T04:04:58;145950.78;;;3.87;100.00
50226;BME280;36113;50.742;6.432;2023-02-01T04:07:24;146010.56;;;4.11;100.00
50226;BME280;36113;50.742;6.432;2023-02-01T04:09:49;145995.59;;;4.05;100.00
50226;BME280;36113;50.742;6.432;2023-02-01T04:12:14;145988.13;;;4.02;100.00
50226;BME280;36113;50.742;6.432;2023-02-01T04:14:39;145981.91;;;4.00;100.00
50226;BME280;36113;50.742;6.432;2023-02-01T04:17:05;145989.41;;;4.03;100.00
50226;BME280;36113;50.742;6.432;2023-02-01T04:19:30;145994.38;;;4.05;100.00
50226;BME280;36113;50.742;6.432;2023-02-01T04:21:55;145966.94;;;3.93;100.00
50226;BME280;36113;50.742;6.432;2023-02-01T04:24:21;145974.41;;;3.97;100.00
50226;BME280;36113;50.742;6.432;2023-02-01T04:26:46;145955.75;;;3.89;100.00
50226;BME280;36113;50.742;6.432;2023-02-01T04:29:11;145970.69;;;3.95;100.00
50226;BME280;36113;50.742;6.432;2023-02-01T04:31:36;145935.81;;;3.81;100.00
50226;BME280;36113;50.742;6.432;2023-02-01T04:34:02;145930.81;;;3.79;100.00
50226;BME280;36113;50.742;6.432;2023-02-01T04:36:27;145910.88;;;3.70;100.00
50226;BME280;36113;50.742;6.432;2023-02-01T04:38:53;145930.81;;;3.79;100.00
50226;BME280;36113;50.742;6.432;2023-02-01T04:41:19;145920.81;;;3.74;100.00
50226;BME280;36113;50.742;6.432;2023-02-01T04:43:49;145879.72;;;3.57;100.00
50226;BME280;36113;50.742;6.432;2023-02-01T04:46:15;145885.97;;;3.60;100.00
50226;BME280;36113;50.742;6.432;2023-02-01T04:48:41;145898.41;;;3.65;100.00
50226;BME280;36113;50.742;6.432;2023-02-01T04:51:07;145883.44;;;3.59;100.00
50226;BME280;36113;50.742;6.432;2023-02-01T04:53:32;145867.25;;;3.52;100.00
50226;BME280;36113;50.742;6.432;2023-02-01T04:55:57;145873.50;;;3.55;100.00
50226;BME280;36113;50.742;6.432;2023-02-01T04:58:23;145862.28;;;3.50;100.00
50226;BME280;36113;50.742;6.432;2023-02-01T05:00:48;145871.00;;;3.54;100.00
50226;BME280;36113;50.742;6.432;2023-02-01T05:03:15;145873.50;;;3.55;100.00
50226;BME280;36113;50.742;6.432;2023-02-01T05:05:40;145867.25;;;3.52;100.00
50226;BME280;36113;50.742;6.432;2023-02-01T05:08:05;145851.09;;;3.46;100.00
50226;BME280;36113;50.742;6.432;2023-02-01T05:10:30;145787.53;;;3.19;100.00
50226;BME280;36113;50.742;6.432;2023-02-01T05:12:56;145839.88;;;3.41;100.00
50226;BME280;36113;50.742;6.432;2023-02-01T05:15:40;145841.09;;;3.42;100.00
50226;BME280;36113;50.742;6.432;2023-02-01T05:18:05;145856.06;;;3.48;100.00
50226;BME280;36113;50.742;6.432;2023-02-01T05:20:30;145834.91;;;3.39;100.00
50226;BME280;36113;50.742;6.432;2023-02-01T05:22:56;145844.84;;;3.43;100.00
50226;BME280;36113;50.742;6.432;2023-02-01T05:25:21;145821.16;;;3.33;100.00
50226;BME280;36113;50.742;6.432;2023-02-01T05:27:46;145837.34;;;3.40;100.00
50226;BME280;36113;50.742;6.432;2023-02-01T05:30:12;145831.16;;;3.37;100.00
50226;BME280;36113;50.742;6.432;2023-02-01T05:32:37;145819.94;;;3.33;100.00
50226;BME280;36113;50.742;6.432;2023-02-01T05:35:03;145823.69;;;3.34;100.00
50226;BME280;36113;50.742;6.432;2023-02-01T05:37:28;145811.22;;;3.29;100.00
50226;BME280;36113;50.742;6.432;2023-02-01T05:39:53;145818.69;;;3.32;100.00
50226;BME280;36113;50.742;6.432;2023-02-01T05:42:19;145800.00;;;3.25;100.00
50226;BME280;36113;50.742;6.432;2023-02-01T05:44:44;145802.50;;;3.26;100.00
50226;BME280;36113;50.742;6.432;2023-02-01T05:47:09;145801.28;;;3.25;100.00
50226;BME280;36113;50.742;6.432;2023-02-01T05:49:35;145792.56;;;3.22;100.00
50226;BME280;36113;50.742;6.432;2023-02-01T05:52:00;145787.53;;;3.19;100.00
50226;BME280;36113;50.742;6.432;2023-02-01T05:54:26;145778.81;;;3.16;100.00
50226;BME280;36113;50.742;6.432;2023-02-01T05:56:51;145788.81;;;3.20;100.00
50226;BME280;36113;50.742;6.432;2023-02-01T05:59:16;145780.09;;;3.16;100.00
50226;BME280;36113;50.742;6.432;2023-02-01T06:01:42;145702.88;;;2.85;100.00
50226;BME280;36113;50.742;6.432;2023-02-01T06:04:07;145780.09;;;3.16;100.00
50226;BME280;36113;50.742;6.432;2023-02-01T06:06:32;145755.19;;;3.06;100.00
50226;BME280;36113;50.742;6.432;2023-02-01T06:08:58;145736.50;;;2.98;100.00
50226;BME280;36113;50.742;6.432;2023-02-01T06:11:23;145750.16;;;3.04;100.00
50226;BME280;36113;50.742;6.432;2023-02-01T06:13:49;145767.66;;;3.11;100.00
50226;BME280;36113;50.742;6.432;2023-02-01T06:16:14;145735.25;;;2.98;100.00
50226;BME280;36113;50.742;6.432;2023-02-01T06:18:40;145743.97;;;3.02;100.00
50226;BME280;36113;50.742;6.432;2023-02-01T06:21:06;145778.81;;;3.16;100.00
50226;BME280;36113;50.742;6.432;2023-02-01T06:23:32;145768.88;;;3.12;100.00
50226;BME280;36113;50.742;6.432;2023-02-01T06:26:00;145767.66;;;3.11;100.00
50226;BME280;36113;50.742;6.432;2023-02-01T06:28:26;145756.44;;;3.07;100.00
50226;BME280;36113;50.742;6.432;2023-02-01T06:30:52;145762.63;;;3.09;100.00
50226;BME280;36113;50.742;6.432;2023-02-01T06:33:17;145719.06;;;2.91;100.00
50226;BME280;36113;50.742;6.432;2023-02-01T06:35:42;145751.47;;;3.05;100.00
50226;BME280;36113;50.742;6.432;2023-02-01T06:38:10;145740.22;;;3.00;100.00
50226;BME280;36113;50.742;6.432;2023-02-01T06:40:36;145747.72;;;3.03;100.00
50226;BME280;36113;50.742;6.432;2023-02-01T06:43:01;145742.75;;;3.01;100.00
50226;BME280;36113;50.742;6.432;2023-02-01T06:45:26;145741.47;;;3.00;100.00
50226;BME280;36113;50.742;6.432;2023-02-01T06:47:52;145724.03;;;2.93;100.00
50226;BME280;36113;50.742;6.432;2023-02-01T06:50:17;145745.19;;;3.02;100.00
50226;BME280;36113;50.742;6.432;2023-02-01T06:52:42;145716.56;;;2.90;100.00
50226;BME280;36113;50.742;6.432;2023-02-01T06:55:08;145743.97;;;3.02;100.00
50226;BME280;36113;50.742;6.432;2023-02-01T06:57:33;145724.03;;;2.93;100.00
50226;BME280;36113;50.742;6.432;2023-02-01T07:00:01;145741.47;;;3.00;100.00
50226;BME280;36113;50.742;6.432;2023-02-01T07:02:27;145734.03;;;2.97;100.00
50226;BME280;36113;50.742;6.432;2023-02-01T07:04:53;145736.50;;;2.98;100.00
50226;BME280;36113;50.742;6.432;2023-02-01T07:07:18;145706.63;;;2.86;100.00
50226;BME280;36113;50.742;6.432;2023-02-01T07:09:45;145747.72;;;3.03;100.00
50226;BME280;36113;50.742;6.432;2023-02-01T07:12:10;145742.75;;;3.01;100.00
50226;BME280;36113;50.742;6.432;2023-02-01T07:14:35;145745.19;;;3.02;100.00
50226;BME280;36113;50.742;6.432;2023-02-01T07:17:01;145731.53;;;2.96;100.00
50226;BME280;36113;50.742;6.432;2023-02-01T07:19:26;145719.06;;;2.91;100.00
50226;BME280;36113;50.742;6.432;2023-02-01T07:21:51;145731.53;;;2.96;100.00
50226;BME280;36113;50.742;6.432;2023-02-01T07:24:16;145763.91;;;3.10;100.00
50226;BME280;36113;50.742;6.432;2023-02-01T07:26:42;145745.19;;;3.02;100.00
50226;BME280;36113;50.742;6.432;2023-02-01T07:29:07;145742.75;;;3.01;100.00
50226;BME280;36113;50.742;6.432;2023-02-01T07:31:32;145735.25;;;2.98;100.00
50226;BME280;36113;50.742;6.432;2023-02-01T07:33:58;145791.28;;;3.21;100.00
50226;BME280;36113;50.742;6.432;2023-02-01T07:36:24;145752.69;;;3.05;100.00
50226;BME280;36113;50.742;6.432;2023-02-01T07:38:49;145778.81;;;3.16;100.00
50226;BME280;36113;50.742;6.432;2023-02-01T07:41:16;145798.75;;;3.24;100.00
50226;BME280;36113;50.742;6.432;2023-02-01T07:43:41;145808.72;;;3.28;100.00
50226;BME280;36113;50.742;6.432;2023-02-01T07:46:07;145805.00;;;3.27;100.00
50226;BME280;36113;50.742;6.432;2023-02-01T07:48:33;145802.50;;;3.26;100.00
50226;BME280;36113;50.742;6.432;2023-02-01T07:51:08;145816.19;;;3.31;100.00
50226;BME280;36113;50.742;6.432;2023-02-01T07:53:34;145800.00;;;3.25;100.00
50226;BME280;36113;50.742;6.432;2023-02-01T07:56:00;145831.16;;;3.37;100.00
50226;BME280;36113;50.742;6.432;2023-02-01T07:58:26;145836.13;;;3.40;100.00
50226;BME280;36113;50.742;6.432;2023-02-01T08:00:52;145836.13;;;3.40;100.00
50226;BME280;36113;50.742;6.432;2023-02-01T08:03:36;145834.91;;;3.39;100.00
50226;BME280;36113;50.742;6.432;2023-02-01T08:06:01;145849.81;;;3.45;100.00
50226;BME280;36113;50.742;6.432;2023-02-01T08:08:26;145843.63;;;3.43;100.00
50226;BME280;36113;50.742;6.432;2023-02-01T08:10:59;145834.91;;;3.39;100.00
50226;BME280;36113;50.742;6.432;2023-02-01T08:13:25;145822.44;;;3.34;100.00
50226;BME280;36113;50.742;6.432;2023-02-01T08:15:50;145791.28;;;3.21;100.00
50226;BME280;36113;50.742;6.432;2023-02-01T08:18:16;145849.81;;;3.45;100.00
50226;BME280;36113;50.742;6.432;2023-02-01T08:20:43;145807.47;;;3.28;100.00
50226;BME280;36113;50.742;6.432;2023-02-01T08:23:11;145866.03;;;3.52;100.00
50226;BME280;36113;50.742;6.432;2023-02-01T08:25:36;145898.41;;;3.65;100.00
50226;BME280;36113;50.742;6.432;2023-02-01T08:28:02;145919.59;;;3.74;100.00
50226;BME280;36113;50.742;6.432;2023-02-01T08:30:28;145942.00;;;3.83;100.00
50226;BME280;36113;50.742;6.432;2023-02-01T08:32:53;145960.72;;;3.91;100.00
50226;BME280;36113;50.742;6.432;2023-02-01T08:35:19;145986.88;;;4.02;100.00
50226;BME280;36113;50.742;6.432;2023-02-01T08:37:44;145983.13;;;4.00;100.00
50226;BME280;36113;50.742;6.432;2023-02-01T08:40:10;145969.44;;;3.94;100.00
50226;BME280;36113;50.742;6.432;2023-02-01T08:42:35;145983.13;;;4.00;100.00
50226;BME280;36113;50.742;6.432;2023-02-01T08:45:16;146025.50;;;4.18;100.00
50226;BME280;36113;50.742;6.432;2023-02-01T08:47:41;146054.19;;;4.29;100.00
50226;BME280;36113;50.742;6.432;2023-02-01T08:50:07;146065.41;;;4.34;100.00
50226;BME280;36113;50.742;6.432;2023-02-01T08:52:33;146069.16;;;4.36;100.00
50226;BME280;36113;50.742;6.432;2023-02-01T08:54:59;146031.75;;;4.20;100.00
50226;BME280;36113;50.742;6.432;2023-02-01T08:57:24;146075.38;;;4.38;100.00
50226;BME280;36113;50.742;6.432;2023-02-01T08:59:50;146072.91;;;4.37;100.00
50226;BME280;36113;50.742;6.432;2023-02-01T09:02:16;146089.13;;;4.44;100.00
50226;BME280;36113;50.742;6.432;2023-02-01T09:04:42;146096.56;;;4.47;100.00
50226;BME280;36113;50.742;6.432;2023-02-01T09:07:08;146091.59;;;4.45;100.00
50226;BME280;36113;50.742;6.432;2023-02-01T09:09:33;146096.56;;;4.47;100.00
50226;BME280;36113;50.742;6.432;2023-02-01T09:11:59;146096.56;;;4.47;100.00
50226;BME280;36113;50.742;6.432;2023-02-01T09:14:24;146087.84;;;4.43;100.00
50226;BME280;36113;50.742;6.432;2023-02-01T09:16:50;146041.72;;;4.24;100.00
50226;BME280;36113;50.742;6.432;2023-02-01T09:19:15;146097.84;;;4.47;100.00
50226;BME280;36113;50.742;6.432;2023-02-01T09:21:40;146101.59;;;4.49;100.00
50226;BME280;36113;50.742;6.432;2023-02-01T09:24:06;146140.22;;;4.65;100.00
50226;BME280;36113;50.742;6.432;2023-02-01T09:26:32;146127.75;;;4.60;100.00
50226;BME280;36113;50.742;6.432;2023-02-01T09:28:57;146091.59;;;4.45;100.00
50226;BME280;36113;50.742;6.432;2023-02-01T09:31:23;146091.59;;;4.45;100.00
50226;BME280;36113;50.742;6.432;2023-02-01T09:33:48;146185.13;;;4.83;100.00
50226;BME280;36113;50.742;6.432;2023-02-01T09:36:14;146182.63;;;4.82;100.00
50226;BME280;36113;50.742;6.432;2023-02-01T09:38:39;146173.88;;;4.79;100.00
50226;BME280;36113;50.742;6.432;2023-02-01T09:41:30;146195.09;;;4.87;100.00
50226;BME280;36113;50.742;6.432;2023-02-01T09:44:18;146206.31;;;4.92;100.00
50226;BME280;36113;50.742;6.432;2023-02-01T09:46:47;146205.03;;;4.92;100.00
50226;BME280;36113;50.742;6.432;2023-02-01T09:49:18;146210.06;;;4.94;100.00
50226;BME280;36113;50.742;6.432;2023-02-01T09:51:46;146191.34;;;4.86;100.00
50226;BME280;36113;50.742;6.432;2023-02-01T09:54:17;146172.66;;;4.78;100.00
50226;BME280;36113;50.742;6.432;2023-02-01T09:56:56;146186.34;;;4.84;100.00
50226;BME280;36113;50.742;6.432;2023-02-01T09:59:41;146190.09;;;4.85;100.00
50226;BME280;36113;50.742;6.432;2023-02-01T10:02:15;146178.88;;;4.81;100.00
50226;BME280;36113;50.742;6.432;2023-02-01T10:04:41;146193.84;;;4.87;100.00
50226;BME280;36113;50.742;6.432;2023-02-01T10:21:06;146296.09;;;5.29;100.00
50226;BME280;36113;50.742;6.432;2023-02-01T10:26:19;146324.81;;;5.41;100.00
50226;BME280;36113;50.742;6.432;2023-02-01T10:28:49;146297.38;;;5.30;100.00
50226;BME280;36113;50.742;6.432;2023-02-01T10:31:15;146333.53;;;5.44;100.00
50226;BME280;36113;50.742;6.432;2023-02-01T10:33:45;146357.25;;;5.54;100.00
50226;BME280;36113;50.742;6.432;2023-02-01T10:36:36;146328.56;;;5.42;100.00
50226;BME280;36113;50.742;6.432;2023-02-01T10:39:05;146317.31;;;5.38;100.00
50226;BME280;36113;50.742;6.432;2023-02-01T10:41:35;146339.78;;;5.47;100.00
50226;BME280;36113;50.742;6.432;2023-02-01T10:44:04;146286.16;;;5.25;100.00
50226;BME280;36113;50.742;6.432;2023-02-01T10:46:33;146364.75;;;5.57;100.00
50226;BME280;36113;50.742;6.432;2023-02-01T10:49:02;146380.97;;;5.64;100.00
50226;BME280;36113;50.742;6.432;2023-02-01T10:51:33;146409.66;;;5.76;100.00
50226;BME280;36113;50.742;6.432;2023-02-01T10:54:04;146388.44;;;5.67;100.00
50226;BME280;36113;50.742;6.432;2023-02-01T10:56:38;146408.41;;;5.75;100.00
50226;BME280;36113;50.742;6.432;2023-02-01T10:59:05;146404.66;;;5.74;100.00
50226;BME280;36113;50.742;6.432;2023-02-01T11:01:33;146393.47;;;5.69;100.00
50226;BME280;36113;50.742;6.432;2023-02-01T11:04:03;146393.47;;;5.69;100.00
50226;BME280;36113;50.742;6.432;2023-02-01T11:06:32;146450.84;;;5.93;100.00
50226;BME280;36113;50.742;6.432;2023-02-01T11:09:16;146462.13;;;5.97;100.00
50226;BME280;36113;50.742;6.432;2023-02-01T11:14:18;146444.63;;;5.90;100.00
50226;BME280;36113;50.742;6.432;2023-02-01T11:16:49;146444.63;;;5.90;100.00
50226;BME280;36113;50.742;6.432;2023-02-01T11:19:17;146403.44;;;5.73;100.00
50226;BME280;36113;50.742;6.432;2023-02-01T11:21:44;146439.63;;;5.88;100.00
50226;BME280;36113;50.742;6.432;2023-02-01T11:24:26;146424.63;;;5.82;100.00
50226;BME280;36113;50.742;6.432;2023-02-01T11:26:56;146462.13;;;5.97;100.00
50226;BME280;36113;50.742;6.432;2023-02-01T11:29:23;146484.56;;;6.07;100.00
50226;BME280;36113;50.742;6.432;2023-02-01T11:31:56;146479.59;;;6.05;100.00
50226;BME280;36113;50.742;6.432;2023-02-01T11:34:25;146509.56;;;6.17;100.00
50226;BME280;36113;50.742;6.432;2023-02-01T11:36:55;146512.06;;;6.18;100.00
50226;BME280;36113;50.742;6.432;2023-02-01T11:39:30;146495.84;;;6.11;100.00
50226;BME280;36113;50.742;6.432;2023-02-01T11:44:31;146509.56;;;6.17;100.00
50226;BME280;36113;50.742;6.432;2023-02-01T11:47:18;146500.81;;;6.13;100.00
50226;BME280;36113;50.742;6.432;2023-02-01T11:49:43;146479.59;;;6.05;100.00
50226;BME280;36113;50.742;6.432;2023-02-01T11:52:39;146470.88;;;6.01;100.00
50226;BME280;36113;50.742;6.432;2023-02-01T12:00:59;146512.06;;;6.18;100.00
50226;BME280;36113;50.742;6.432;2023-02-01T12:09:13;146478.38;;;6.04;100.00
50226;BME280;36113;50.742;6.432;2023-02-01T12:14:23;146529.53;;;6.25;100.00
50226;BME280;36113;50.742;6.432;2023-02-01T12:17:06;146519.56;;;6.21;100.00
50226;BME280;36113;50.742;6.432;2023-02-01T12:41:35;146444.63;;;5.90;100.00
50226;BME280;36113;50.742;6.432;2023-02-01T12:44:12;146405.94;;;5.74;100.00
50226;BME280;36113;50.742;6.432;2023-02-01T12:46:47;146427.16;;;5.83;100.00
50226;BME280;36113;50.742;6.432;2023-02-01T12:49:21;146419.66;;;5.80;100.00
50226;BME280;36113;50.742;6.432;2023-02-01T12:51:52;146377.22;;;5.62;100.00
50226;BME280;36113;50.742;6.432;2023-02-01T12:54:37;146403.44;;;5.73;100.00
50226;BME280;36113;50.742;6.432;2023-02-01T12:57:12;146353.50;;;5.53;100.00
50226;BME280;36113;50.742;6.432;2023-02-01T12:59:54;146373.47;;;5.61;100.00
50226;BME280;36113;50.742;6.432;2023-02-01T13:02:34;146379.69;;;5.63;100.00
50226;BME280;36113;50.742;6.432;2023-02-01T13:05:20;146382.22;;;5.64;100.00
50226;BME280;36113;50.742;6.432;2023-02-01T13:10:19;146362.25;;;5.56;100.00
50226;BME280;36113;50.742;6.432;2023-02-01T13:12:53;146372.25;;;5.60;100.00
50226;BME280;36113;50.742;6.432;2023-02-01T13:15:24;146370.97;;;5.60;100.00
50226;BME280;36113;50.742;6.432;2023-02-01T13:17:52;146367.22;;;5.58;100.00
50226;BME280;36113;50.742;6.432;2023-02-01T13:21:05;146359.78;;;5.55;100.00
50226;BME280;36113;50.742;6.432;2023-02-01T13:23:37;146354.75;;;5.53;100.00
50226;BME280;36113;50.742;6.432;2023-02-01T13:26:03;146348.53;;;5.51;100.00
50226;BME280;36113;50.742;6.432;2023-02-01T13:36:27;146363.47;;;5.57;100.00
50226;BME280;36113;50.742;6.432;2023-02-01T13:41:32;146346.00;;;5.50;100.00
50226;BME280;36113;50.742;6.432;2023-02-01T13:44:09;146347.28;;;5.50;100.00
50226;BME280;36113;50.742;6.432;2023-02-01T13:46:41;146347.28;;;5.50;100.00
50226;BME280;36113;50.742;6.432;2023-02-01T13:49:22;146359.78;;;5.55;100.00
50226;BME280;36113;50.742;6.432;2023-02-01T13:51:52;146344.78;;;5.49;100.00
50226;BME280;36113;50.742;6.432;2023-02-01T13:54:30;146369.75;;;5.59;100.00
50226;BME280;36113;50.742;6.432;2023-02-01T13:57:00;146352.28;;;5.52;100.00
50226;BME280;36113;50.742;6.432;2023-02-01T14:05:03;146356.03;;;5.54;100.00
50226;BME280;36113;50.742;6.432;2023-02-01T14:07:30;146297.38;;;5.30;100.00
50226;BME280;36113;50.742;6.432;2023-02-01T14:09:55;146354.75;;;5.53;100.00
50226;BME280;36113;50.742;6.432;2023-02-01T14:12:48;146363.47;;;5.57;100.00
50226;BME280;36113;50.742;6.432;2023-02-01T14:15:26;146354.75;;;5.53;100.00
50226;BME280;36113;50.742;6.432;2023-02-01T14:17:52;146356.03;;;5.54;100.00
50226;BME280;36113;50.742;6.432;2023-02-01T14:20:45;146366.00;;;5.58;100.00
50226;BME280;36113;50.742;6.432;2023-02-01T14:23:16;146370.97;;;5.60;100.00
50226;BME280;36113;50.742;6.432;2023-02-01T14:25:43;146339.78;;;5.47;100.00
50226;BME280;36113;50.742;6.432;2023-02-01T14:28:23;146336.06;;;5.45;100.00